sensor_id;sensor_type;location;lat;lon;timestamp;P1;durP1;ratioP1;P2;durP2;ratioP2
10144;SDS011;5113;41.822;23.564;2023-06-26T00:02:16;6.17;;;5.33;;
10144;SDS011;5113;41.822;23.564;2023-06-26T00:05:23;7.37;;;5.67;;
10144;SDS011;5113;41.822;23.564;2023-06-26T00:08:29;6.97;;;5.03;;
10144;SDS011;5113;41.822;23.564;2023-06-26T00:11:36;5.10;;;4.60;;
10144;SDS011;5113;41.822;23.564;2023-06-26T00:14:42;6.60;;;4.80;;
10144;SDS011;5113;41.822;23.564;2023-06-26T00:17:50;6.63;;;4.43;;
10144;SDS011;5113;41.822;23.564;2023-06-26T00:20:56;7.07;;;4.60;;
10144;SDS011;5113;41.822;23.564;2023-06-26T00:24:03;6.23;;;4.90;;
10144;SDS011;5113;41.822;23.564;2023-06-26T00:27:09;6.40;;;5.03;;
10144;SDS011;5113;41.822;23.564;2023-06-26T00:30:16;6.53;;;5.03;;
10144;SDS011;5113;41.822;23.564;2023-06-26T00:33:23;6.30;;;4.90;;
10144;SDS011;5113;41.822;23.564;2023-06-26T00:36:30;12.23;;;6.20;;
10144;SDS011;5113;41.822;23.564;2023-06-26T00:39:36;9.53;;;5.20;;
10144;SDS011;5113;41.822;23.564;2023-06-26T00:42:42;6.90;;;5.60;;
10144;SDS011;5113;41.822;23.564;2023-06-26T00:45:48;9.27;;;6.40;;
10144;SDS011;5113;41.822;23.564;2023-06-26T00:48:56;8.10;;;5.53;;
10144;SDS011;5113;41.822;23.564;2023-06-26T00:52:05;5.97;;;4.50;;
10144;SDS011;5113;41.822;23.564;2023-06-26T00:55:12;6.30;;;4.63;;
10144;SDS011;5113;41.822;23.564;2023-06-26T00:58:19;6.23;;;5.20;;
10144;SDS011;5113;41.822;23.564;2023-06-26T01:01:28;7.80;;;5.10;;
10144;SDS011;5113;41.822;23.564;2023-06-26T01:04:36;10.43;;;6.23;;
10144;SDS011;5113;41.822;23.564;2023-06-26T01:07:42;6.37;;;5.27;;
10144;SDS011;5113;41.822;23.564;2023-06-26T01:10:48;5.80;;;5.07;;
10144;SDS011;5113;41.822;23.564;2023-06-26T01:13:55;5.87;;;4.70;;
10144;SDS011;5113;41.822;23.564;2023-06-26T01:17:05;7.03;;;4.77;;
10144;SDS011;5113;41.822;23.564;2023-06-26T01:20:13;7.00;;;4.73;;
10144;SDS011;5113;41.822;23.564;2023-06-26T01:23:22;5.90;;;4.73;;
10144;SDS011;5113;41.822;23.564;2023-06-26T01:26:34;6.83;;;4.20;;
10144;SDS011;5113;41.822;23.564;2023-06-26T01:29:42;5.33;;;4.63;;
10144;SDS011;5113;41.822;23.564;2023-06-26T01:32:51;5.73;;;4.37;;
10144;SDS011;5113;41.822;23.564;2023-06-26T01:35:57;7.03;;;5.00;;
10144;SDS011;5113;41.822;23.564;2023-06-26T01:39:04;6.53;;;4.67;;
10144;SDS011;5113;41.822;23.564;2023-06-26T01:42:14;8.23;;;4.67;;
10144;SDS011;5113;41.822;23.564;2023-06-26T01:45:23;5.77;;;5.07;;
10144;SDS011;5113;41.822;23.564;2023-06-26T01:48:33;6.10;;;5.00;;
10144;SDS011;5113;41.822;23.564;2023-06-26T01:51:45;6.83;;;5.53;;
10144;SDS011;5113;41.822;23.564;2023-06-26T01:54:58;6.27;;;5.13;;
10144;SDS011;5113;41.822;23.564;2023-06-26T01:58:11;5.20;;;4.20;;
10144;SDS011;5113;41.822;23.564;2023-06-26T02:01:21;6.67;;;4.50;;
10144;SDS011;5113;41.822;23.564;2023-06-26T02:04:28;4.40;;;4.00;;
10144;SDS011;5113;41.822;23.564;2023-06-26T02:07:34;5.60;;;4.37;;
10144;SDS011;5113;41.822;23.564;2023-06-26T02:10:40;6.00;;;4.60;;
10144;SDS011;5113;41.822;23.564;2023-06-26T02:13:48;6.10;;;5.33;;
10144;SDS011;5113;41.822;23.564;2023-06-26T02:16:54;6.17;;;4.90;;
10144;SDS011;5113;41.822;23.564;2023-06-26T02:20:01;5.70;;;4.60;;
10144;SDS011;5113;41.822;23.564;2023-06-26T02:23:08;6.80;;;5.10;;
10144;SDS011;5113;41.822;23.564;2023-06-26T02:26:14;5.63;;;4.87;;
10144;SDS011;5113;41.822;23.564;2023-06-26T02:29:21;6.20;;;5.10;;
10144;SDS011;5113;41.822;23.564;2023-06-26T02:32:28;8.53;;;5.63;;
10144;SDS011;5113;41.822;23.564;2023-06-26T02:35:34;6.90;;;5.63;;
10144;SDS011;5113;41.822;23.564;2023-06-26T02:38:41;6.57;;;5.27;;
10144;SDS011;5113;41.822;23.564;2023-06-26T02:41:47;6.57;;;5.00;;
10144;SDS011;5113;41.822;23.564;2023-06-26T02:44:55;5.93;;;4.93;;
10144;SDS011;5113;41.822;23.564;2023-06-26T02:48:01;8.80;;;5.53;;
10144;SDS011;5113;41.822;23.564;2023-06-26T02:51:08;7.73;;;4.90;;
10144;SDS011;5113;41.822;23.564;2023-06-26T02:54:15;5.97;;;4.83;;
10144;SDS011;5113;41.822;23.564;2023-06-26T02:57:21;6.43;;;5.20;;
10144;SDS011;5113;41.822;23.564;2023-06-26T03:00:29;7.07;;;5.30;;
10144;SDS011;5113;41.822;23.564;2023-06-26T03:03:35;7.70;;;5.03;;
10144;SDS011;5113;41.822;23.564;2023-06-26T03:06:45;6.83;;;5.27;;
10144;SDS011;5113;41.822;23.564;2023-06-26T03:09:51;8.57;;;4.90;;
10144;SDS011;5113;41.822;23.564;2023-06-26T03:12:58;6.03;;;4.97;;
10144;SDS011;5113;41.822;23.564;2023-06-26T03:16:05;5.53;;;4.50;;
10144;SDS011;5113;41.822;23.564;2023-06-26T03:19:12;5.90;;;4.30;;
10144;SDS011;5113;41.822;23.564;2023-06-26T03:22:18;6.30;;;4.60;;
10144;SDS011;5113;41.822;23.564;2023-06-26T03:25:24;6.33;;;4.70;;
10144;SDS011;5113;41.822;23.564;2023-06-26T03:28:31;10.17;;;5.20;;
10144;SDS011;5113;41.822;23.564;2023-06-26T03:31:39;6.47;;;4.73;;
10144;SDS011;5113;41.822;23.564;2023-06-26T03:34:46;4.87;;;4.37;;
10144;SDS011;5113;41.822;23.564;2023-06-26T03:37:52;6.77;;;5.67;;
10144;SDS011;5113;41.822;23.564;2023-06-26T03:40:59;7.57;;;5.50;;
10144;SDS011;5113;41.822;23.564;2023-06-26T03:44:05;6.97;;;4.53;;
10144;SDS011;5113;41.822;23.564;2023-06-26T03:47:13;6.23;;;5.20;;
10144;SDS011;5113;41.822;23.564;2023-06-26T03:50:20;7.10;;;5.40;;
10144;SDS011;5113;41.822;23.564;2023-06-26T03:53:26;8.00;;;5.60;;
10144;SDS011;5113;41.822;23.564;2023-06-26T03:56:33;5.40;;;4.23;;
10144;SDS011;5113;41.822;23.564;2023-06-26T03:59:40;6.00;;;4.70;;
10144;SDS011;5113;41.822;23.564;2023-06-26T04:02:47;5.90;;;4.73;;
10144;SDS011;5113;41.822;23.564;2023-06-26T04:05:56;7.20;;;5.47;;
10144;SDS011;5113;41.822;23.564;2023-06-26T04:09:02;5.70;;;4.77;;
10144;SDS011;5113;41.822;23.564;2023-06-26T04:12:09;5.00;;;4.50;;
10144;SDS011;5113;41.822;23.564;2023-06-26T04:15:15;9.37;;;6.03;;
10144;SDS011;5113;41.822;23.564;2023-06-26T04:18:22;7.07;;;5.40;;
10144;SDS011;5113;41.822;23.564;2023-06-26T04:21:29;6.87;;;5.80;;
10144;SDS011;5113;41.822;23.564;2023-06-26T04:24:35;6.53;;;5.20;;
10144;SDS011;5113;41.822;23.564;2023-06-26T04:27:41;7.70;;;5.70;;
10144;SDS011;5113;41.822;23.564;2023-06-26T04:30:47;9.50;;;5.60;;
10144;SDS011;5113;41.822;23.564;2023-06-26T04:33:55;8.97;;;6.40;;
10144;SDS011;5113;41.822;23.564;2023-06-26T04:37:04;8.80;;;6.50;;
10144;SDS011;5113;41.822;23.564;2023-06-26T04:40:10;9.60;;;6.53;;
10144;SDS011;5113;41.822;23.564;2023-06-26T04:43:17;10.80;;;7.13;;
10144;SDS011;5113;41.822;23.564;2023-06-26T04:46:23;11.67;;;7.20;;
10144;SDS011;5113;41.822;23.564;2023-06-26T04:49:34;8.83;;;6.70;;
10144;SDS011;5113;41.822;23.564;2023-06-26T04:52:42;9.87;;;7.20;;
10144;SDS011;5113;41.822;23.564;2023-06-26T04:55:49;9.70;;;7.37;;
10144;SDS011;5113;41.822;23.564;2023-06-26T04:58:55;8.70;;;6.13;;
10144;SDS011;5113;41.822;23.564;2023-06-26T05:02:02;10.47;;;6.63;;
10144;SDS011;5113;41.822;23.564;2023-06-26T05:05:11;11.30;;;6.87;;
10144;SDS011;5113;41.822;23.564;2023-06-26T05:08:18;13.43;;;7.67;;
10144;SDS011;5113;41.822;23.564;2023-06-26T05:11:26;9.37;;;7.00;;
10144;SDS011;5113;41.822;23.564;2023-06-26T05:14:33;8.70;;;5.90;;
10144;SDS011;5113;41.822;23.564;2023-06-26T05:17:39;11.90;;;7.57;;
10144;SDS011;5113;41.822;23.564;2023-06-26T05:20:47;14.40;;;6.97;;
10144;SDS011;5113;41.822;23.564;2023-06-26T05:23:56;10.67;;;6.80;;
10144;SDS011;5113;41.822;23.564;2023-06-26T05:27:03;13.40;;;7.47;;
10144;SDS011;5113;41.822;23.564;2023-06-26T05:30:11;9.50;;;6.77;;
10144;SDS011;5113;41.822;23.564;2023-06-26T05:33:18;8.07;;;6.43;;
10144;SDS011;5113;41.822;23.564;2023-06-26T05:36:28;8.53;;;7.10;;
10144;SDS011;5113;41.822;23.564;2023-06-26T05:39:37;10.10;;;7.00;;
10144;SDS011;5113;41.822;23.564;2023-06-26T05:42:44;11.40;;;7.67;;
10144;SDS011;5113;41.822;23.564;2023-06-26T05:45:51;14.40;;;7.50;;
10144;SDS011;5113;41.822;23.564;2023-06-26T05:48:57;9.30;;;7.23;;
10144;SDS011;5113;41.822;23.564;2023-06-26T05:52:05;11.37;;;7.60;;
10144;SDS011;5113;41.822;23.564;2023-06-26T05:55:13;10.33;;;6.93;;
10144;SDS011;5113;41.822;23.564;2023-06-26T05:58:19;11.13;;;7.47;;
10144;SDS011;5113;41.822;23.564;2023-06-26T06:01:27;11.00;;;7.60;;
10144;SDS011;5113;41.822;23.564;2023-06-26T06:04:33;8.37;;;6.80;;
10144;SDS011;5113;41.822;23.564;2023-06-26T06:07:43;9.27;;;6.73;;
10144;SDS011;5113;41.822;23.564;2023-06-26T06:10:50;13.07;;;8.03;;
10144;SDS011;5113;41.822;23.564;2023-06-26T06:13:56;9.57;;;7.57;;
10144;SDS011;5113;41.822;23.564;2023-06-26T06:17:04;11.30;;;7.03;;
10144;SDS011;5113;41.822;23.564;2023-06-26T06:20:10;12.83;;;6.70;;
10144;SDS011;5113;41.822;23.564;2023-06-26T06:23:17;11.57;;;7.47;;
10144;SDS011;5113;41.822;23.564;2023-06-26T06:26:24;9.37;;;7.20;;
10144;SDS011;5113;41.822;23.564;2023-06-26T06:29:30;10.43;;;6.80;;
10144;SDS011;5113;41.822;23.564;2023-06-26T06:32:37;10.27;;;7.23;;
10144;SDS011;5113;41.822;23.564;2023-06-26T06:35:43;7.50;;;5.97;;
10144;SDS011;5113;41.822;23.564;2023-06-26T06:38:51;13.07;;;7.40;;
10144;SDS011;5113;41.822;23.564;2023-06-26T06:41:57;8.90;;;6.77;;
10144;SDS011;5113;41.822;23.564;2023-06-26T06:45:04;10.20;;;6.90;;
10144;SDS011;5113;41.822;23.564;2023-06-26T06:48:11;10.50;;;7.83;;
10144;SDS011;5113;41.822;23.564;2023-06-26T06:51:17;10.07;;;6.67;;
10144;SDS011;5113;41.822;23.564;2023-06-26T06:54:26;13.30;;;7.63;;
10144;SDS011;5113;41.822;23.564;2023-06-26T06:57:33;9.57;;;7.30;;
10144;SDS011;5113;41.822;23.564;2023-06-26T07:00:42;10.77;;;8.10;;
10144;SDS011;5113;41.822;23.564;2023-06-26T07:03:48;10.17;;;7.00;;
10144;SDS011;5113;41.822;23.564;2023-06-26T07:06:55;9.03;;;7.43;;
10144;SDS011;5113;41.822;23.564;2023-06-26T07:10:03;12.33;;;7.80;;
10144;SDS011;5113;41.822;23.564;2023-06-26T07:13:11;8.20;;;6.73;;
10144;SDS011;5113;41.822;23.564;2023-06-26T07:16:17;9.57;;;7.00;;
10144;SDS011;5113;41.822;23.564;2023-06-26T07:19:23;9.03;;;6.37;;
10144;SDS011;5113;41.822;23.564;2023-06-26T07:22:29;9.90;;;7.37;;
10144;SDS011;5113;41.822;23.564;2023-06-26T07:25:37;12.07;;;6.70;;
10144;SDS011;5113;41.822;23.564;2023-06-26T07:28:43;9.07;;;6.90;;
10144;SDS011;5113;41.822;23.564;2023-06-26T07:31:49;7.57;;;6.60;;
10144;SDS011;5113;41.822;23.564;2023-06-26T07:34:56;8.13;;;5.87;;
10144;SDS011;5113;41.822;23.564;2023-06-26T07:38:02;6.83;;;5.30;;
10144;SDS011;5113;41.822;23.564;2023-06-26T07:41:09;8.40;;;6.23;;
10144;SDS011;5113;41.822;23.564;2023-06-26T07:44:16;7.97;;;5.73;;
10144;SDS011;5113;41.822;23.564;2023-06-26T07:47:22;7.83;;;6.33;;
10144;SDS011;5113;41.822;23.564;2023-06-26T07:50:28;6.93;;;6.10;;
10144;SDS011;5113;41.822;23.564;2023-06-26T07:53:35;7.50;;;6.30;;
10144;SDS011;5113;41.822;23.564;2023-06-26T08:00:05;7.50;;;5.93;;
10144;SDS011;5113;41.822;23.564;2023-06-26T08:03:12;6.30;;;5.70;;
10144;SDS011;5113;41.822;23.564;2023-06-26T08:06:38;7.03;;;5.47;;
10144;SDS011;5113;41.822;23.564;2023-06-26T08:09:45;8.20;;;6.53;;
10144;SDS011;5113;41.822;23.564;2023-06-26T08:12:53;6.17;;;5.23;;
10144;SDS011;5113;41.822;23.564;2023-06-26T08:16:00;7.00;;;5.60;;
10144;SDS011;5113;41.822;23.564;2023-06-26T08:19:06;7.00;;;5.70;;
10144;SDS011;5113;41.822;23.564;2023-06-26T08:22:13;7.70;;;6.10;;
10144;SDS011;5113;41.822;23.564;2023-06-26T08:25:20;5.47;;;4.82;;
10144;SDS011;5113;41.822;23.564;2023-06-26T08:28:27;6.97;;;5.43;;
10144;SDS011;5113;41.822;23.564;2023-06-26T08:31:34;5.70;;;5.03;;
10144;SDS011;5113;41.822;23.564;2023-06-26T08:34:40;7.63;;;5.35;;
10144;SDS011;5113;41.822;23.564;2023-06-26T08:37:47;6.13;;;5.25;;
10144;SDS011;5113;41.822;23.564;2023-06-26T08:40:53;5.80;;;5.25;;
10144;SDS011;5113;41.822;23.564;2023-06-26T08:44:01;6.22;;;5.00;;
10144;SDS011;5113;41.822;23.564;2023-06-26T08:47:09;5.80;;;4.75;;
10144;SDS011;5113;41.822;23.564;2023-06-26T08:50:18;6.20;;;5.47;;
10144;SDS011;5113;41.822;23.564;2023-06-26T08:53:29;6.97;;;5.28;;
10144;SDS011;5113;41.822;23.564;2023-06-26T08:56:44;8.07;;;5.55;;
10144;SDS011;5113;41.822;23.564;2023-06-26T08:59:54;5.10;;;4.70;;
10144;SDS011;5113;41.822;23.564;2023-06-26T09:03:01;6.57;;;5.75;;
10144;SDS011;5113;41.822;23.564;2023-06-26T09:06:10;5.53;;;5.03;;
10144;SDS011;5113;41.822;23.564;2023-06-26T09:09:17;9.65;;;4.80;;
10144;SDS011;5113;41.822;23.564;2023-06-26T09:12:23;7.75;;;4.97;;
10144;SDS011;5113;41.822;23.564;2023-06-26T09:15:38;5.97;;;5.15;;
10144;SDS011;5113;41.822;23.564;2023-06-26T09:18:47;5.07;;;4.68;;
10144;SDS011;5113;41.822;23.564;2023-06-26T09:21:54;6.15;;;5.35;;
10144;SDS011;5113;41.822;23.564;2023-06-26T09:25:00;5.38;;;4.88;;
10144;SDS011;5113;41.822;23.564;2023-06-26T09:28:08;5.78;;;5.05;;
10144;SDS011;5113;41.822;23.564;2023-06-26T09:31:16;5.85;;;5.25;;
10144;SDS011;5113;41.822;23.564;2023-06-26T09:34:45;5.93;;;5.03;;
10144;SDS011;5113;41.822;23.564;2023-06-26T09:37:51;5.35;;;4.85;;
10144;SDS011;5113;41.822;23.564;2023-06-26T09:40:58;5.75;;;5.20;;
10144;SDS011;5113;41.822;23.564;2023-06-26T09:44:05;5.53;;;4.95;;
10144;SDS011;5113;41.822;23.564;2023-06-26T09:47:13;7.35;;;5.28;;
10144;SDS011;5113;41.822;23.564;2023-06-26T09:50:22;4.53;;;4.10;;
10144;SDS011;5113;41.822;23.564;2023-06-26T09:53:31;4.50;;;4.10;;
10144;SDS011;5113;41.822;23.564;2023-06-26T09:56:41;5.93;;;5.28;;
10144;SDS011;5113;41.822;23.564;2023-06-26T09:59:48;5.80;;;5.22;;
10144;SDS011;5113;41.822;23.564;2023-06-26T10:02:56;7.40;;;5.75;;
10144;SDS011;5113;41.822;23.564;2023-06-26T10:06:03;6.65;;;5.93;;
10144;SDS011;5113;41.822;23.564;2023-06-26T10:09:11;6.10;;;5.60;;
10144;SDS011;5113;41.822;23.564;2023-06-26T10:12:22;5.65;;;5.15;;
10144;SDS011;5113;41.822;23.564;2023-06-26T10:15:33;3.80;;;3.50;;
10144;SDS011;5113;41.822;23.564;2023-06-26T10:18:42;7.35;;;4.00;;
10144;SDS011;5113;41.822;23.564;2023-06-26T10:21:50;4.70;;;4.30;;
10144;SDS011;5113;41.822;23.564;2023-06-26T10:24:58;4.80;;;4.40;;
10144;SDS011;5113;41.822;23.564;2023-06-26T10:28:06;5.30;;;4.80;;
10144;SDS011;5113;41.822;23.564;2023-06-26T10:31:14;6.97;;;4.50;;
10144;SDS011;5113;41.822;23.564;2023-06-26T10:34:23;5.50;;;4.70;;
10144;SDS011;5113;41.822;23.564;2023-06-26T10:37:43;4.60;;;4.20;;
10144;SDS011;5113;41.822;23.564;2023-06-26T10:40:51;4.43;;;4.03;;
10144;SDS011;5113;41.822;23.564;2023-06-26T10:44:05;6.67;;;4.90;;
10144;SDS011;5113;41.822;23.564;2023-06-26T10:47:28;4.70;;;4.30;;
10144;SDS011;5113;41.822;23.564;2023-06-26T10:50:38;7.33;;;4.50;;
10144;SDS011;5113;41.822;23.564;2023-06-26T10:53:45;4.43;;;3.97;;
10144;SDS011;5113;41.822;23.564;2023-06-26T10:56:59;8.60;;;4.93;;
10144;SDS011;5113;41.822;23.564;2023-06-26T11:00:10;7.17;;;5.33;;
10144;SDS011;5113;41.822;23.564;2023-06-26T11:03:22;6.03;;;5.43;;
10144;SDS011;5113;41.822;23.564;2023-06-26T11:06:31;7.77;;;5.80;;
10144;SDS011;5113;41.822;23.564;2023-06-26T11:09:45;6.00;;;5.17;;
10144;SDS011;5113;41.822;23.564;2023-06-26T11:13:00;7.03;;;5.17;;
10144;SDS011;5113;41.822;23.564;2023-06-26T11:16:11;4.72;;;4.32;;
10144;SDS011;5113;41.822;23.564;2023-06-26T11:19:19;7.10;;;4.55;;
10144;SDS011;5113;41.822;23.564;2023-06-26T11:22:27;4.55;;;4.05;;
10144;SDS011;5113;41.822;23.564;2023-06-26T11:25:34;4.65;;;4.22;;
10144;SDS011;5113;41.822;23.564;2023-06-26T11:28:45;5.47;;;4.88;;
10144;SDS011;5113;41.822;23.564;2023-06-26T11:31:58;5.18;;;4.65;;
10144;SDS011;5113;41.822;23.564;2023-06-26T11:35:09;5.00;;;4.57;;
10144;SDS011;5113;41.822;23.564;2023-06-26T11:38:16;4.57;;;4.07;;
10144;SDS011;5113;41.822;23.564;2023-06-26T11:41:23;5.10;;;4.65;;
10144;SDS011;5113;41.822;23.564;2023-06-26T11:44:30;5.13;;;4.68;;
10144;SDS011;5113;41.822;23.564;2023-06-26T11:47:38;5.68;;;4.95;;
10144;SDS011;5113;41.822;23.564;2023-06-26T11:50:45;5.32;;;4.82;;
10144;SDS011;5113;41.822;23.564;2023-06-26T11:53:53;4.68;;;4.28;;
10144;SDS011;5113;41.822;23.564;2023-06-26T11:56:59;4.75;;;4.25;;
10144;SDS011;5113;41.822;23.564;2023-06-26T12:00:12;5.53;;;4.47;;
10144;SDS011;5113;41.822;23.564;2023-06-26T12:03:21;4.63;;;4.22;;
10144;SDS011;5113;41.822;23.564;2023-06-26T12:06:27;4.15;;;3.72;;
10144;SDS011;5113;41.822;23.564;2023-06-26T12:09:38;4.93;;;4.50;;
10144;SDS011;5113;41.822;23.564;2023-06-26T12:12:46;4.85;;;4.00;;
10144;SDS011;5113;41.822;23.564;2023-06-26T12:15:52;4.63;;;4.32;;
10144;SDS011;5113;41.822;23.564;2023-06-26T12:18:59;4.90;;;4.40;;
10144;SDS011;5113;41.822;23.564;2023-06-26T12:22:06;7.07;;;4.00;;
10144;SDS011;5113;41.822;23.564;2023-06-26T12:25:14;5.03;;;4.15;;
10144;SDS011;5113;41.822;23.564;2023-06-26T12:28:21;5.22;;;4.30;;
10144;SDS011;5113;41.822;23.564;2023-06-26T12:31:28;6.87;;;4.20;;
10144;SDS011;5113;41.822;23.564;2023-06-26T12:34:35;4.00;;;3.70;;
10144;SDS011;5113;41.822;23.564;2023-06-26T12:37:43;3.67;;;3.42;;
10144;SDS011;5113;41.822;23.564;2023-06-26T12:40:52;4.45;;;4.05;;
10144;SDS011;5113;41.822;23.564;2023-06-26T12:44:02;4.40;;;4.07;;
10144;SDS011;5113;41.822;23.564;2023-06-26T12:47:09;4.78;;;4.38;;
10144;SDS011;5113;41.822;23.564;2023-06-26T12:50:17;4.28;;;3.60;;
10144;SDS011;5113;41.822;23.564;2023-06-26T12:53:24;4.15;;;3.75;;
10144;SDS011;5113;41.822;23.564;2023-06-26T12:56:31;5.28;;;4.78;;
10144;SDS011;5113;41.822;23.564;2023-06-26T12:59:38;4.47;;;4.07;;
10144;SDS011;5113;41.822;23.564;2023-06-26T13:02:45;4.95;;;4.00;;
10144;SDS011;5113;41.822;23.564;2023-06-26T13:05:51;5.00;;;4.50;;
10144;SDS011;5113;41.822;23.564;2023-06-26T13:08:58;5.03;;;4.63;;
10144;SDS011;5113;41.822;23.564;2023-06-26T13:12:06;4.30;;;3.90;;
10144;SDS011;5113;41.822;23.564;2023-06-26T13:15:13;5.30;;;4.47;;
10144;SDS011;5113;41.822;23.564;2023-06-26T13:18:20;4.60;;;4.10;;
10144;SDS011;5113;41.822;23.564;2023-06-26T13:21:27;4.28;;;3.97;;
10144;SDS011;5113;41.822;23.564;2023-06-26T13:24:34;4.35;;;3.95;;
10144;SDS011;5113;41.822;23.564;2023-06-26T13:27:41;5.00;;;4.45;;
10144;SDS011;5113;41.822;23.564;2023-06-26T13:30:48;4.35;;;4.05;;
10144;SDS011;5113;41.822;23.564;2023-06-26T13:33:56;5.47;;;4.97;;
10144;SDS011;5113;41.822;23.564;2023-06-26T13:37:04;4.93;;;4.50;;
10144;SDS011;5113;41.822;23.564;2023-06-26T13:40:11;5.13;;;4.63;;
10144;SDS011;5113;41.822;23.564;2023-06-26T13:43:20;5.47;;;4.97;;
10144;SDS011;5113;41.822;23.564;2023-06-26T13:46:27;5.30;;;4.80;;
10144;SDS011;5113;41.822;23.564;2023-06-26T13:49:34;4.68;;;4.28;;
10144;SDS011;5113;41.822;23.564;2023-06-26T13:52:40;5.00;;;4.50;;
10144;SDS011;5113;41.822;23.564;2023-06-26T13:55:47;5.00;;;4.55;;
10144;SDS011;5113;41.822;23.564;2023-06-26T13:58:56;5.90;;;5.30;;
10144;SDS011;5113;41.822;23.564;2023-06-26T14:02:04;5.88;;;5.10;;
10144;SDS011;5113;41.822;23.564;2023-06-26T14:05:11;4.68;;;4.03;;
10144;SDS011;5113;41.822;23.564;2023-06-26T14:08:18;4.78;;;4.38;;
10144;SDS011;5113;41.822;23.564;2023-06-26T14:11:24;4.97;;;4.57;;
10144;SDS011;5113;41.822;23.564;2023-06-26T14:14:32;4.05;;;3.65;;
10144;SDS011;5113;41.822;23.564;2023-06-26T14:17:39;5.40;;;4.32;;
10144;SDS011;5113;41.822;23.564;2023-06-26T14:20:46;5.82;;;4.38;;
10144;SDS011;5113;41.822;23.564;2023-06-26T14:23:53;5.03;;;4.53;;
10144;SDS011;5113;41.822;23.564;2023-06-26T14:26:59;5.00;;;4.20;;
10144;SDS011;5113;41.822;23.564;2023-06-26T14:30:08;4.88;;;4.47;;
10144;SDS011;5113;41.822;23.564;2023-06-26T14:33:15;5.88;;;5.28;;
10144;SDS011;5113;41.822;23.564;2023-06-26T14:36:21;4.63;;;4.22;;
10144;SDS011;5113;41.822;23.564;2023-06-26T14:39:28;4.38;;;4.07;;
10144;SDS011;5113;41.822;23.564;2023-06-26T14:42:34;4.55;;;4.13;;
10144;SDS011;5113;41.822;23.564;2023-06-26T14:45:43;5.25;;;4.15;;
10144;SDS011;5113;41.822;23.564;2023-06-26T14:48:50;5.03;;;4.53;;
10144;SDS011;5113;41.822;23.564;2023-06-26T14:51:56;4.50;;;4.00;;
10144;SDS011;5113;41.822;23.564;2023-06-26T14:55:02;4.95;;;4.22;;
10144;SDS011;5113;41.822;23.564;2023-06-26T14:58:11;5.45;;;4.93;;
10144;SDS011;5113;41.822;23.564;2023-06-26T15:01:19;5.65;;;4.50;;
10144;SDS011;5113;41.822;23.564;2023-06-26T15:04:25;5.28;;;4.80;;
10144;SDS011;5113;41.822;23.564;2023-06-26T15:07:31;6.55;;;4.15;;
10144;SDS011;5113;41.822;23.564;2023-06-26T15:10:38;4.55;;;3.97;;
10144;SDS011;5113;41.822;23.564;2023-06-26T15:13:44;4.75;;;4.30;;
10144;SDS011;5113;41.822;23.564;2023-06-26T15:16:52;4.65;;;4.25;;
10144;SDS011;5113;41.822;23.564;2023-06-26T15:19:59;5.97;;;4.32;;
10144;SDS011;5113;41.822;23.564;2023-06-26T15:23:06;4.95;;;4.55;;
10144;SDS011;5113;41.822;23.564;2023-06-26T15:26:12;5.70;;;5.10;;
10144;SDS011;5113;41.822;23.564;2023-06-26T15:29:19;5.85;;;5.13;;
10144;SDS011;5113;41.822;23.564;2023-06-26T15:32:27;5.45;;;4.40;;
10144;SDS011;5113;41.822;23.564;2023-06-26T15:35:33;4.50;;;4.13;;
10144;SDS011;5113;41.822;23.564;2023-06-26T15:38:39;10.88;;;6.25;;
10144;SDS011;5113;41.822;23.564;2023-06-26T15:41:46;7.45;;;5.93;;
10144;SDS011;5113;41.822;23.564;2023-06-26T15:44:53;6.45;;;5.55;;
10144;SDS011;5113;41.822;23.564;2023-06-26T15:48:00;5.60;;;4.90;;
10144;SDS011;5113;41.822;23.564;2023-06-26T15:51:07;5.72;;;5.20;;
10144;SDS011;5113;41.822;23.564;2023-06-26T15:54:13;5.75;;;4.97;;
10144;SDS011;5113;41.822;23.564;2023-06-26T15:57:19;6.53;;;4.88;;
10144;SDS011;5113;41.822;23.564;2023-06-26T16:00:25;5.25;;;4.57;;
10144;SDS011;5113;41.822;23.564;2023-06-26T16:03:33;5.10;;;4.60;;
10144;SDS011;5113;41.822;23.564;2023-06-26T16:06:39;5.15;;;4.65;;
10144;SDS011;5113;41.822;23.564;2023-06-26T16:09:45;5.05;;;4.60;;
10144;SDS011;5113;41.822;23.564;2023-06-26T16:12:51;7.15;;;6.13;;
10144;SDS011;5113;41.822;23.564;2023-06-26T16:15:58;9.77;;;6.80;;
10144;SDS011;5113;41.822;23.564;2023-06-26T16:19:06;7.30;;;6.50;;
10144;SDS011;5113;41.822;23.564;2023-06-26T16:22:12;6.05;;;5.07;;
10144;SDS011;5113;41.822;23.564;2023-06-26T16:25:18;5.50;;;5.00;;
10144;SDS011;5113;41.822;23.564;2023-06-26T16:28:25;5.25;;;4.75;;
10144;SDS011;5113;41.822;23.564;2023-06-26T16:31:32;6.17;;;5.57;;
10144;SDS011;5113;41.822;23.564;2023-06-26T16:34:41;6.03;;;4.90;;
10144;SDS011;5113;41.822;23.564;2023-06-26T16:37:47;6.27;;;5.30;;
10144;SDS011;5113;41.822;23.564;2023-06-26T16:40:54;6.47;;;5.17;;
10144;SDS011;5113;41.822;23.564;2023-06-26T16:44:00;5.40;;;4.90;;
10144;SDS011;5113;41.822;23.564;2023-06-26T16:47:07;5.70;;;4.67;;
10144;SDS011;5113;41.822;23.564;2023-06-26T16:50:15;5.40;;;4.90;;
10144;SDS011;5113;41.822;23.564;2023-06-26T16:53:22;4.47;;;4.07;;
10144;SDS011;5113;41.822;23.564;2023-06-26T16:56:29;4.13;;;3.73;;
10144;SDS011;5113;41.822;23.564;2023-06-26T16:59:35;5.10;;;3.83;;
10144;SDS011;5113;41.822;23.564;2023-06-26T17:02:43;6.43;;;4.03;;
10144;SDS011;5113;41.822;23.564;2023-06-26T17:05:51;5.90;;;5.30;;
10144;SDS011;5113;41.822;23.564;2023-06-26T17:08:58;4.13;;;3.77;;
10144;SDS011;5113;41.822;23.564;2023-06-26T17:12:04;9.37;;;4.23;;
10144;SDS011;5113;41.822;23.564;2023-06-26T17:15:11;4.17;;;3.80;;
10144;SDS011;5113;41.822;23.564;2023-06-26T17:18:17;4.53;;;3.73;;
10144;SDS011;5113;41.822;23.564;2023-06-26T17:21:24;5.77;;;4.37;;
10144;SDS011;5113;41.822;23.564;2023-06-26T17:24:31;5.20;;;4.70;;
10144;SDS011;5113;41.822;23.564;2023-06-26T17:27:37;6.93;;;4.97;;
10144;SDS011;5113;41.822;23.564;2023-06-26T17:30:43;4.20;;;3.90;;
10144;SDS011;5113;41.822;23.564;2023-06-26T17:33:50;5.63;;;4.47;;
10144;SDS011;5113;41.822;23.564;2023-06-26T17:36:58;4.80;;;3.63;;
10144;SDS011;5113;41.822;23.564;2023-06-26T17:40:08;5.50;;;4.93;;
10144;SDS011;5113;41.822;23.564;2023-06-26T17:43:15;7.17;;;5.20;;
10144;SDS011;5113;41.822;23.564;2023-06-26T17:46:25;4.97;;;4.47;;
10144;SDS011;5113;41.822;23.564;2023-06-26T17:49:31;5.17;;;4.63;;
10144;SDS011;5113;41.822;23.564;2023-06-26T17:52:39;6.07;;;5.17;;
10144;SDS011;5113;41.822;23.564;2023-06-26T17:55:46;4.87;;;4.30;;
10144;SDS011;5113;41.822;23.564;2023-06-26T17:58:52;4.97;;;4.30;;
10144;SDS011;5113;41.822;23.564;2023-06-26T18:01:58;4.80;;;4.30;;
10144;SDS011;5113;41.822;23.564;2023-06-26T18:05:05;3.87;;;3.53;;
10144;SDS011;5113;41.822;23.564;2023-06-26T18:08:14;5.10;;;4.37;;
10144;SDS011;5113;41.822;23.564;2023-06-26T18:11:20;4.40;;;4.00;;
10144;SDS011;5113;41.822;23.564;2023-06-26T18:14:27;4.77;;;3.83;;
10144;SDS011;5113;41.822;23.564;2023-06-26T18:17:33;4.87;;;3.90;;
10144;SDS011;5113;41.822;23.564;2023-06-26T18:20:40;5.60;;;5.10;;
10144;SDS011;5113;41.822;23.564;2023-06-26T18:23:48;4.50;;;4.10;;
10144;SDS011;5113;41.822;23.564;2023-06-26T18:26:58;4.13;;;3.73;;
10144;SDS011;5113;41.822;23.564;2023-06-26T18:30:04;4.53;;;4.13;;
10144;SDS011;5113;41.822;23.564;2023-06-26T18:33:12;9.50;;;4.63;;
10144;SDS011;5113;41.822;23.564;2023-06-26T18:36:18;11.90;;;4.70;;
10144;SDS011;5113;41.822;23.564;2023-06-26T18:39:26;5.27;;;4.33;;
10144;SDS011;5113;41.822;23.564;2023-06-26T18:42:32;4.83;;;4.40;;
10144;SDS011;5113;41.822;23.564;2023-06-26T18:45:39;4.17;;;3.77;;
10144;SDS011;5113;41.822;23.564;2023-06-26T18:48:46;6.77;;;5.17;;
10144;SDS011;5113;41.822;23.564;2023-06-26T18:51:53;4.93;;;4.10;;